sensor_id;sensor_type;location;lat;lon;timestamp;pressure;altitude;pressure_sealevel;temperature
86194;BMP180;76841;51.366;7.480;2024-03-02T00:00:19;98140.72;;;10.12
86194;BMP180;76841;51.366;7.480;2024-03-02T00:02:47;98146.69;;;10.16
86194;BMP180;76841;51.366;7.480;2024-03-02T00:05:22;98136.53;;;10.14
86194;BMP180;76841;51.366;7.480;2024-03-02T00:07:52;98122.06;;;10.03
86194;BMP180;76841;51.366;7.480;2024-03-02T00:10:20;98141.06;;;10.14
86194;BMP180;76841;51.366;7.480;2024-03-02T00:12:48;98141.84;;;10.11
86194;BMP180;76841;51.366;7.480;2024-03-02T00:18:01;98145.69;;;10.03
86194;BMP180;76841;51.366;7.480;2024-03-02T00:20:26;98150.16;;;10.06
86194;BMP180;76841;51.366;7.480;2024-03-02T00:22:58;98139.75;;;9.99
86194;BMP180;76841;51.366;7.480;2024-03-02T00:25:26;98156.56;;;10.05
86194;BMP180;76841;51.366;7.480;2024-03-02T00:27:51;98147.97;;;10.01
86194;BMP180;76841;51.366;7.480;2024-03-02T00:33:15;98148.78;;;9.98
86194;BMP180;76841;51.366;7.480;2024-03-02T00:35:44;98130.78;;;9.93
86194;BMP180;76841;51.366;7.480;2024-03-02T00:38:09;98132.31;;;9.94
86194;BMP180;76841;51.366;7.480;2024-03-02T00:40:34;98138.25;;;9.98
86194;BMP180;76841;51.366;7.480;2024-03-02T00:43:00;98142.38;;;9.99
86194;BMP180;76841;51.366;7.480;2024-03-02T00:45:26;98132.59;;;9.99
86194;BMP180;76841;51.366;7.480;2024-03-02T00:47:52;98118.00;;;9.95
86194;BMP180;76841;51.366;7.480;2024-03-02T00:50:18;98119.59;;;9.89
86194;BMP180;76841;51.366;7.480;2024-03-02T00:52:43;98123.72;;;9.90
86194;BMP180;76841;51.366;7.480;2024-03-02T00:55:09;98120.38;;;9.86
86194;BMP180;76841;51.366;7.480;2024-03-02T00:57:34;98121.84;;;9.90
86194;BMP180;76841;51.366;7.480;2024-03-02T01:00:00;98113.63;;;9.85
86194;BMP180;76841;51.366;7.480;2024-03-02T01:02:25;98110.66;;;9.83
86194;BMP180;76841;51.366;7.480;2024-03-02T01:04:51;98124.84;;;9.89
86194;BMP180;76841;51.366;7.480;2024-03-02T01:07:16;98118.84;;;9.88
86194;BMP180;76841;51.366;7.480;2024-03-02T01:09:42;98103.94;;;9.78
86194;BMP180;76841;51.366;7.480;2024-03-02T01:12:07;98091.28;;;9.73
86194;BMP180;76841;51.366;7.480;2024-03-02T01:14:32;98103.13;;;9.85
86194;BMP180;76841;51.366;7.480;2024-03-02T01:16:57;98091.22;;;9.77
86194;BMP180;76841;51.366;7.480;2024-03-02T01:19:23;98088.59;;;9.77
86194;BMP180;76841;51.366;7.480;2024-03-02T01:21:48;98085.28;;;9.73
86194;BMP180;76841;51.366;7.480;2024-03-02T01:24:15;98090.44;;;9.80
86194;BMP180;76841;51.366;7.480;2024-03-02T01:26:41;98087.81;;;9.76
86194;BMP180;76841;51.366;7.480;2024-03-02T01:29:06;98089.19;;;9.88
86194;BMP180;76841;51.366;7.480;2024-03-02T01:31:32;98073.09;;;9.86
86194;BMP180;76841;51.366;7.480;2024-03-02T01:33:57;98079.84;;;9.87
86194;BMP180;76841;51.366;7.480;2024-03-02T01:36:22;98080.56;;;9.91
86194;BMP180;76841;51.366;7.480;2024-03-02T01:38:48;98096.25;;;9.94
86194;BMP180;76841;51.366;7.480;2024-03-02T01:41:14;98083.09;;;9.98
86194;BMP180;76841;51.366;7.480;2024-03-02T01:43:39;98075.38;;;9.84
86194;BMP180;76841;51.366;7.480;2024-03-02T01:46:04;98085.06;;;9.90
86194;BMP180;76841;51.366;7.480;2024-03-02T01:48:30;98088.03;;;9.92
86194;BMP180;76841;51.366;7.480;2024-03-02T01:50:55;98093.25;;;9.96
86194;BMP180;76841;51.366;7.480;2024-03-02T01:53:20;98064.78;;;9.91
86194;BMP180;76841;51.366;7.480;2024-03-02T01:55:45;98093.94;;;10.00
86194;BMP180;76841;51.366;7.480;2024-03-02T01:58:11;98073.75;;;9.93
86194;BMP180;76841;51.366;7.480;2024-03-02T02:00:36;98094.28;;;10.02
86194;BMP180;76841;51.366;7.480;2024-03-02T02:03:02;98087.16;;;10.02
86194;BMP180;76841;51.366;7.480;2024-03-02T02:05:27;98077.75;;;10.01
86194;BMP180;76841;51.366;7.480;2024-03-02T02:07:53;98077.75;;;10.05
86194;BMP180;76841;51.366;7.480;2024-03-02T02:10:18;98071.44;;;9.99
86194;BMP180;76841;51.366;7.480;2024-03-02T02:12:43;98071.06;;;10.00
86194;BMP180;76841;51.366;7.480;2024-03-02T02:15:41;98072.84;;;10.07
86194;BMP180;76841;51.366;7.480;2024-03-02T02:18:06;98076.25;;;10.04
86194;BMP180;76841;51.366;7.480;2024-03-02T02:20:32;98077.47;;;9.96
86194;BMP180;76841;51.366;7.480;2024-03-02T02:23:01;98078.19;;;10.00
86194;BMP180;76841;51.366;7.480;2024-03-02T02:25:28;98082.66;;;10.03
86194;BMP180;76841;51.366;7.480;2024-03-02T02:27:54;98063.59;;;9.95
86194;BMP180;76841;51.366;7.480;2024-03-02T02:30:20;98078.84;;;10.07
86194;BMP180;76841;51.366;7.480;2024-03-02T02:32:46;98066.94;;;9.99
86194;BMP180;76841;51.366;7.480;2024-03-02T02:35:11;98081.06;;;10.09
86194;BMP180;76841;51.366;7.480;2024-03-02T02:37:37;98069.84;;;10.05
86194;BMP180;76841;51.366;7.480;2024-03-02T02:40:04;98053.38;;;10.01
86194;BMP180;76841;51.366;7.480;2024-03-02T02:42:30;98067.59;;;10.07
86194;BMP180;76841;51.366;7.480;2024-03-02T02:44:55;98057.06;;;10.07
86194;BMP180;76841;51.366;7.480;2024-03-02T02:47:20;98063.84;;;10.04
86194;BMP180;76841;51.366;7.480;2024-03-02T02:49:45;98057.16;;;10.00
86194;BMP180;76841;51.366;7.480;2024-03-02T02:52:11;98046.69;;;9.96
86194;BMP180;76841;51.366;7.480;2024-03-02T02:54:37;98063.09;;;10.04
86194;BMP180;76841;51.366;7.480;2024-03-02T02:57:03;98064.59;;;10.05
86194;BMP180;76841;51.366;7.480;2024-03-02T02:59:28;98045.16;;;9.99
86194;BMP180;76841;51.366;7.480;2024-03-02T03:01:53;98057.44;;;10.09
86194;BMP180;76841;51.366;7.480;2024-03-02T03:04:19;98057.06;;;10.07
86194;BMP180;76841;51.366;7.480;2024-03-02T03:06:44;98039.91;;;9.99
86194;BMP180;76841;51.366;7.480;2024-03-02T03:09:09;98051.06;;;10.06
86194;BMP180;76841;51.366;7.480;2024-03-02T03:11:36;98055.56;;;10.06
86194;BMP180;76841;51.366;7.480;2024-03-02T03:14:01;98042.88;;;10.01
86194;BMP180;76841;51.366;7.480;2024-03-02T03:16:26;98042.19;;;9.97
86194;BMP180;76841;51.366;7.480;2024-03-02T03:18:51;98047.00;;;10.02
86194;BMP180;76841;51.366;7.480;2024-03-02T03:21:18;98038.84;;;9.93
86194;BMP180;76841;51.366;7.480;2024-03-02T03:23:43;98044.81;;;9.97
86194;BMP180;76841;51.366;7.480;2024-03-02T03:26:09;98039.28;;;9.91
86194;BMP180;76841;51.366;7.480;2024-03-02T03:28:34;98052.69;;;9.97
86194;BMP180;76841;51.366;7.480;2024-03-02T03:30:59;98034.84;;;9.85
86194;BMP180;76841;51.366;7.480;2024-03-02T03:33:24;98058.28;;;9.99
86194;BMP180;76841;51.366;7.480;2024-03-02T03:35:49;98057.59;;;9.95
86194;BMP180;76841;51.366;7.480;2024-03-02T03:38:15;98062.44;;;10.00
86194;BMP180;76841;51.366;7.480;2024-03-02T03:40:40;98051.59;;;9.94
86194;BMP180;76841;51.366;7.480;2024-03-02T03:43:05;98052.31;;;9.98
86194;BMP180;76841;51.366;7.480;2024-03-02T03:45:30;98060.91;;;9.99
86194;BMP180;76841;51.366;7.480;2024-03-02T03:47:56;98063.25;;;9.93
86194;BMP180;76841;51.366;7.480;2024-03-02T03:50:21;98063.28;;;9.90
86194;BMP180;76841;51.366;7.480;2024-03-02T03:52:46;98061.81;;;9.89
86194;BMP180;76841;51.366;7.480;2024-03-02T03:55:11;98065.47;;;9.95
86194;BMP180;76841;51.366;7.480;2024-03-02T03:57:37;98068.09;;;9.95
86194;BMP180;76841;51.366;7.480;2024-03-02T04:00:03;98074.06;;;9.99
86194;BMP180;76841;51.366;7.480;2024-03-02T04:02:28;98081.22;;;9.95
86194;BMP180;76841;51.366;7.480;2024-03-02T04:04:54;98065.19;;;9.89
86194;BMP180;76841;51.366;7.480;2024-03-02T04:07:19;98077.47;;;9.96
86194;BMP180;76841;51.366;7.480;2024-03-02T04:09:44;98072.94;;;10.00
86194;BMP180;76841;51.366;7.480;2024-03-02T04:12:09;98075.97;;;9.98
86194;BMP180;76841;51.366;7.480;2024-03-02T04:14:34;98065.81;;;10.00
86194;BMP180;76841;51.366;7.480;2024-03-02T04:17:00;98067.69;;;10.00
86194;BMP180;76841;51.366;7.480;2024-03-02T04:19:25;98054.28;;;9.91
86194;BMP180;76841;51.366;7.480;2024-03-02T04:21:50;98075.56;;;10.00
86194;BMP180;76841;51.366;7.480;2024-03-02T04:24:15;98067.69;;;9.96
86194;BMP180;76841;51.366;7.480;2024-03-02T04:26:41;98070.03;;;9.91
86194;BMP180;76841;51.366;7.480;2024-03-02T04:29:06;98082.75;;;9.96
86194;BMP180;76841;51.366;7.480;2024-03-02T04:31:31;98077.47;;;9.96
86194;BMP180;76841;51.366;7.480;2024-03-02T04:33:56;98075.22;;;9.98
86194;BMP180;76841;51.366;7.480;2024-03-02T04:36:21;98074.50;;;9.94
86194;BMP180;76841;51.366;7.480;2024-03-02T04:38:47;98071.44;;;9.99
86194;BMP180;76841;51.366;7.480;2024-03-02T04:41:13;98082.19;;;10.08
86194;BMP180;76841;51.366;7.480;2024-03-02T04:43:38;98076.25;;;10.04
86194;BMP180;76841;51.366;7.480;2024-03-02T04:46:05;98081.75;;;10.13
86194;BMP180;76841;51.366;7.480;2024-03-02T04:48:31;98072.84;;;10.07
86194;BMP180;76841;51.366;7.480;2024-03-02T04:50:57;98074.63;;;10.10
86194;BMP180;76841;51.366;7.480;2024-03-02T04:53:22;98073.50;;;10.11
86194;BMP180;76841;51.366;7.480;2024-03-02T04:55:47;98070.59;;;10.05
86194;BMP180;76841;51.366;7.480;2024-03-02T04:58:30;98063.44;;;10.06
86194;BMP180;76841;51.366;7.480;2024-03-02T05:00:56;98072.38;;;10.12
86194;BMP180;76841;51.366;7.480;2024-03-02T05:03:21;98071.69;;;10.08
86194;BMP180;76841;51.366;7.480;2024-03-02T05:05:46;98093.00;;;10.13
86194;BMP180;76841;51.366;7.480;2024-03-02T05:08:12;98096.38;;;10.14
86194;BMP180;76841;51.366;7.480;2024-03-02T05:10:38;98097.16;;;10.11
86194;BMP180;76841;51.366;7.480;2024-03-02T05:13:03;98084.22;;;9.97
86194;BMP180;76841;51.366;7.480;2024-03-02T05:15:28;98101.41;;;10.01
86194;BMP180;76841;51.366;7.480;2024-03-02T05:17:54;98110.00;;;10.05
86194;BMP180;76841;51.366;7.480;2024-03-02T05:20:20;98114.06;;;10.10
86194;BMP180;76841;51.366;7.480;2024-03-02T05:22:45;98111.19;;;10.01
86194;BMP180;76841;51.366;7.480;2024-03-02T05:25:10;98128.69;;;10.11
86194;BMP180;76841;51.366;7.480;2024-03-02T05:27:36;98113.81;;;10.01
86194;BMP180;76841;51.366;7.480;2024-03-02T05:30:02;98120.22;;;10.00
86194;BMP180;76841;51.366;7.480;2024-03-02T05:32:27;98125.41;;;10.03
86194;BMP180;76841;51.366;7.480;2024-03-02T05:34:53;98128.78;;;10.04
86194;BMP180;76841;51.366;7.480;2024-03-02T05:37:18;98120.63;;;9.98
86194;BMP180;76841;51.366;7.480;2024-03-02T05:39:43;98129.19;;;10.02
86194;BMP180;76841;51.366;7.480;2024-03-02T05:42:09;98115.38;;;9.95
86194;BMP180;76841;51.366;7.480;2024-03-02T05:44:38;98123.25;;;9.98
86194;BMP180;76841;51.366;7.480;2024-03-02T05:47:03;98106.13;;;9.87
86194;BMP180;76841;51.366;7.480;2024-03-02T05:49:29;98119.59;;;9.89
86194;BMP180;76841;51.366;7.480;2024-03-02T05:51:54;98119.22;;;9.90
86194;BMP180;76841;51.366;7.480;2024-03-02T05:54:20;98116.63;;;9.87
86194;BMP180;76841;51.366;7.480;2024-03-02T05:56:45;98106.56;;;9.78
86194;BMP180;76841;51.366;7.480;2024-03-02T05:59:10;98118.91;;;9.85
86194;BMP180;76841;51.366;7.480;2024-03-02T06:01:42;98119.28;;;9.83
86194;BMP180;76841;51.366;7.480;2024-03-02T06:04:08;98124.16;;;9.85
86194;BMP180;76841;51.366;7.480;2024-03-02T06:06:33;98124.16;;;9.85
86194;BMP180;76841;51.366;7.480;2024-03-02T06:09:02;98129.41;;;9.85
86194;BMP180;76841;51.366;7.480;2024-03-02T06:11:32;98121.16;;;9.83
86194;BMP180;76841;51.366;7.480;2024-03-02T06:13:58;98127.56;;;9.82
86194;BMP180;76841;51.366;7.480;2024-03-02T06:16:23;98119.78;;;9.75
86194;BMP180;76841;51.366;7.480;2024-03-02T06:18:48;98118.25;;;9.74
86194;BMP180;76841;51.366;7.480;2024-03-02T06:21:13;98108.91;;;9.69
86194;BMP180;76841;51.366;7.480;2024-03-02T06:23:38;98113.06;;;9.70
86194;BMP180;76841;51.366;7.480;2024-03-02T06:26:04;98120.09;;;9.77
86194;BMP180;76841;51.366;7.480;2024-03-02T06:28:29;98126.47;;;9.79
86194;BMP180;76841;51.366;7.480;2024-03-02T06:30:54;98120.81;;;9.81
86194;BMP180;76841;51.366;7.480;2024-03-02T06:33:20;98126.56;;;9.69
86194;BMP180;76841;51.366;7.480;2024-03-02T06:35:45;98109.31;;;9.68
86194;BMP180;76841;51.366;7.480;2024-03-02T06:38:10;98126.50;;;9.76
86194;BMP180;76841;51.366;7.480;2024-03-02T06:40:35;98116.44;;;9.71
86194;BMP180;76841;51.366;7.480;2024-03-02T06:43:02;98125.03;;;9.75
86194;BMP180;76841;51.366;7.480;2024-03-02T06:45:28;98133.16;;;9.84
86194;BMP180;76841;51.366;7.480;2024-03-02T06:47:55;98131.63;;;9.86
86194;BMP180;76841;51.366;7.480;2024-03-02T06:50:21;98141.31;;;9.93
86194;BMP180;76841;51.366;7.480;2024-03-02T06:52:46;98132.34;;;9.90
86194;BMP180;76841;51.366;7.480;2024-03-02T06:55:11;98144.91;;;10.06
86194;BMP180;76841;51.366;7.480;2024-03-02T06:57:37;98141.91;;;10.04
86194;BMP180;76841;51.366;7.480;2024-03-02T07:00:02;98143.44;;;10.05
86194;BMP180;76841;51.366;7.480;2024-03-02T07:02:30;98144.13;;;10.09
86194;BMP180;76841;51.366;7.480;2024-03-02T07:04:55;98153.09;;;10.11
86194;BMP180;76841;51.366;7.480;2024-03-02T07:07:20;98161.28;;;10.17
86194;BMP180;76841;51.366;7.480;2024-03-02T07:09:46;98149.47;;;10.32
86194;BMP180;76841;51.366;7.480;2024-03-02T07:12:11;98164.09;;;10.86
86194;BMP180;76841;51.366;7.480;2024-03-02T07:14:36;98162.09;;;11.36
86194;BMP180;76841;51.366;7.480;2024-03-02T07:17:20;98155.00;;;12.12
86194;BMP180;76841;51.366;7.480;2024-03-02T07:19:45;98162.34;;;12.56
86194;BMP180;76841;51.366;7.480;2024-03-02T07:22:11;98171.16;;;12.97
86194;BMP180;76841;51.366;7.480;2024-03-02T07:24:43;98159.50;;;13.40
86194;BMP180;76841;51.366;7.480;2024-03-02T07:27:09;98173.47;;;13.81
86194;BMP180;76841;51.366;7.480;2024-03-02T07:29:35;98170.88;;;14.19
86194;BMP180;76841;51.366;7.480;2024-03-02T07:32:00;98168.19;;;14.57
86194;BMP180;76841;51.366;7.480;2024-03-02T07:34:25;98179.34;;;15.20
86194;BMP180;76841;51.366;7.480;2024-03-02T07:36:51;98168.31;;;15.64
86194;BMP180;76841;51.366;7.480;2024-03-02T07:39:16;98182.56;;;16.19
86194;BMP180;76841;51.366;7.480;2024-03-02T07:41:41;98171.16;;;16.49
86194;BMP180;76841;51.366;7.480;2024-03-02T07:44:07;98168.25;;;16.83
86194;BMP180;76841;51.366;7.480;2024-03-02T07:46:32;98182.41;;;17.25
86194;BMP180;76841;51.366;7.480;2024-03-02T07:48:57;98185.00;;;17.53
86194;BMP180;76841;51.366;7.480;2024-03-02T07:51:22;98180.78;;;17.79
86194;BMP180;76841;51.366;7.480;2024-03-02T07:53:48;98178.72;;;18.15
86194;BMP180;76841;51.366;7.480;2024-03-02T07:56:13;98192.56;;;18.52
86194;BMP180;76841;51.366;7.480;2024-03-02T07:58:38;98186.16;;;18.73
86194;BMP180;76841;51.366;7.480;2024-03-02T08:01:03;98186.84;;;18.68
86194;BMP180;76841;51.366;7.480;2024-03-02T08:03:29;98187.47;;;18.63
86194;BMP180;76841;51.366;7.480;2024-03-02T08:05:54;98189.50;;;18.68
86194;BMP180;76841;51.366;7.480;2024-03-02T08:08:19;98187.88;;;18.85
86194;BMP180;76841;51.366;7.480;2024-03-02T08:10:45;98198.06;;;19.24
86194;BMP180;76841;51.366;7.480;2024-03-02T08:13:10;98205.22;;;19.48
86194;BMP180;76841;51.366;7.480;2024-03-02T08:15:35;98210.19;;;19.69
86194;BMP180;76841;51.366;7.480;2024-03-02T08:18:00;98210.81;;;20.13
86194;BMP180;76841;51.366;7.480;2024-03-02T08:20:26;98211.31;;;20.52
86194;BMP180;76841;51.366;7.480;2024-03-02T08:22:51;98208.13;;;20.93
86194;BMP180;76841;51.366;7.480;2024-03-02T08:25:18;98215.31;;;21.38
86194;BMP180;76841;51.366;7.480;2024-03-02T08:27:43;98207.06;;;21.68
86194;BMP180;76841;51.366;7.480;2024-03-02T08:30:09;98208.19;;;21.98
86194;BMP180;76841;51.366;7.480;2024-03-02T08:32:35;98209.75;;;22.10
86194;BMP180;76841;51.366;7.480;2024-03-02T08:35:00;98219.25;;;22.16
86194;BMP180;76841;51.366;7.480;2024-03-02T08:37:26;98218.13;;;22.34
86194;BMP180;76841;51.366;7.480;2024-03-02T08:39:51;98209.91;;;22.48
86194;BMP180;76841;51.366;7.480;2024-03-02T08:42:17;98209.44;;;22.61
86194;BMP180;76841;51.366;7.480;2024-03-02T08:44:42;98224.09;;;22.60
86194;BMP180;76841;51.366;7.480;2024-03-02T08:47:07;98211.84;;;22.48
86194;BMP180;76841;51.366;7.480;2024-03-02T08:49:33;98218.72;;;22.60
86194;BMP180;76841;51.366;7.480;2024-03-02T08:51:58;98228.56;;;22.96
86194;BMP180;76841;51.366;7.480;2024-03-02T08:54:23;98228.31;;;23.10
86194;BMP180;76841;51.366;7.480;2024-03-02T08:56:49;98212.00;;;23.25
86194;BMP180;76841;51.366;7.480;2024-03-02T08:59:15;98221.22;;;23.46
86194;BMP180;76841;51.366;7.480;2024-03-02T09:01:40;98211.97;;;23.58
86194;BMP180;76841;51.366;7.480;2024-03-02T09:04:07;98221.97;;;23.63
86194;BMP180;76841;51.366;7.480;2024-03-02T09:06:34;98227.09;;;23.72
86194;BMP180;76841;51.366;7.480;2024-03-02T09:08:59;98218.19;;;24.04
86194;BMP180;76841;51.366;7.480;2024-03-02T09:11:24;98223.41;;;24.43
86194;BMP180;76841;51.366;7.480;2024-03-02T09:13:50;98232.31;;;24.73
86194;BMP180;76841;51.366;7.480;2024-03-02T09:16:15;98232.69;;;24.82
86194;BMP180;76841;51.366;7.480;2024-03-02T09:18:40;98225.16;;;24.81
86194;BMP180;76841;51.366;7.480;2024-03-02T09:21:06;98226.41;;;24.74
86194;BMP180;76841;51.366;7.480;2024-03-02T09:23:31;98217.56;;;24.39
86194;BMP180;76841;51.366;7.480;2024-03-02T09:25:57;98215.03;;;24.52
86194;BMP180;76841;51.366;7.480;2024-03-02T09:28:22;98211.09;;;24.64
86194;BMP180;76841;51.366;7.480;2024-03-02T09:30:47;98217.09;;;24.81
86194;BMP180;76841;51.366;7.480;2024-03-02T09:33:12;98215.31;;;24.89
86194;BMP180;76841;51.366;7.480;2024-03-02T09:35:38;98229.00;;;24.91
86194;BMP180;76841;51.366;7.480;2024-03-02T09:38:03;98236.72;;;24.65
86194;BMP180;76841;51.366;7.480;2024-03-02T09:40:28;98218.13;;;24.21
86194;BMP180;76841;51.366;7.480;2024-03-02T09:42:54;98216.53;;;23.85
86194;BMP180;76841;51.366;7.480;2024-03-02T09:45:24;98221.72;;;23.50
86194;BMP180;76841;51.366;7.480;2024-03-02T09:47:50;98211.47;;;23.10
86194;BMP180;76841;51.366;7.480;2024-03-02T09:50:16;98197.03;;;22.74
86194;BMP180;76841;51.366;7.480;2024-03-02T09:52:42;98194.00;;;22.34
86194;BMP180;76841;51.366;7.480;2024-03-02T09:55:08;98197.78;;;22.05
86194;BMP180;76841;51.366;7.480;2024-03-02T09:57:33;98212.59;;;22.01
86194;BMP180;76841;51.366;7.480;2024-03-02T09:59:59;98213.50;;;21.87
86194;BMP180;76841;51.366;7.480;2024-03-02T10:02:24;98210.69;;;21.65
86194;BMP180;76841;51.366;7.480;2024-03-02T10:04:49;98217.31;;;21.75
86194;BMP180;76841;51.366;7.480;2024-03-02T10:07:16;98224.59;;;21.69
86194;BMP180;76841;51.366;7.480;2024-03-02T10:09:42;98213.69;;;21.78
86194;BMP180;76841;51.366;7.480;2024-03-02T10:12:09;98207.19;;;21.90
86194;BMP180;76841;51.366;7.480;2024-03-02T10:14:34;98197.94;;;21.91
86194;BMP180;76841;51.366;7.480;2024-03-02T10:17:07;98214.50;;;21.95
86194;BMP180;76841;51.366;7.480;2024-03-02T10:19:33;98216.47;;;21.94
86194;BMP180;76841;51.366;7.480;2024-03-02T10:22:00;98191.94;;;22.07
86194;BMP180;76841;51.366;7.480;2024-03-02T10:24:26;98204.00;;;22.33
86194;BMP180;76841;51.366;7.480;2024-03-02T10:26:52;98203.97;;;22.28
86194;BMP180;76841;51.366;7.480;2024-03-02T10:29:18;98207.50;;;22.08
86194;BMP180;76841;51.366;7.480;2024-03-02T10:31:45;98208.25;;;22.09
86194;BMP180;76841;51.366;7.480;2024-03-02T10:34:11;98197.72;;;21.94
86194;BMP180;76841;51.366;7.480;2024-03-02T10:36:40;98198.06;;;21.71
86194;BMP180;76841;51.366;7.480;2024-03-02T10:39:07;98207.50;;;21.61
86194;BMP180;76841;51.366;7.480;2024-03-02T10:41:37;98212.97;;;21.46
86194;BMP180;76841;51.366;7.480;2024-03-02T10:44:03;98212.88;;;21.35
86194;BMP180;76841;51.366;7.480;2024-03-02T10:46:30;98207.66;;;21.20
86194;BMP180;76841;51.366;7.480;2024-03-02T10:48:57;98202.59;;;21.02
86194;BMP180;76841;51.366;7.480;2024-03-02T10:51:26;98202.50;;;20.91
86194;BMP180;76841;51.366;7.480;2024-03-02T10:53:52;98203.88;;;20.81
86194;BMP180;76841;51.366;7.480;2024-03-02T10:56:23;98197.84;;;20.66
86194;BMP180;76841;51.366;7.480;2024-03-02T10:59:01;98191.59;;;20.69
86194;BMP180;76841;51.366;7.480;2024-03-02T11:01:29;98180.91;;;20.69
86194;BMP180;76841;51.366;7.480;2024-03-02T11:03:55;98182.88;;;20.74
86194;BMP180;76841;51.366;7.480;2024-03-02T11:06:22;98189.81;;;20.86
86194;BMP180;76841;51.366;7.480;2024-03-02T11:08:49;98185.00;;;20.90
86194;BMP180;76841;51.366;7.480;2024-03-02T11:11:21;98176.97;;;20.90
86194;BMP180;76841;51.366;7.480;2024-03-02T11:13:51;98181.34;;;20.88
86194;BMP180;76841;51.366;7.480;2024-03-02T11:16:31;98172.19;;;20.74
86194;BMP180;76841;51.366;7.480;2024-03-02T11:19:06;98184.34;;;20.75
86194;BMP180;76841;51.366;7.480;2024-03-02T11:21:36;98186.06;;;20.78
86194;BMP180;76841;51.366;7.480;2024-03-02T11:26:46;98171.38;;;20.88
86194;BMP180;76841;51.366;7.480;2024-03-02T11:32:04;98175.19;;;20.62
86194;BMP180;76841;51.366;7.480;2024-03-02T11:34:31;98193.22;;;20.41
86194;BMP180;76841;51.366;7.480;2024-03-02T11:37:06;98178.75;;;20.33
86194;BMP180;76841;51.366;7.480;2024-03-02T11:39:31;98182.25;;;20.19
86194;BMP180;76841;51.366;7.480;2024-03-02T11:41:57;98179.69;;;20.10
86194;BMP180;76841;51.366;7.480;2024-03-02T11:44:24;98167.13;;;19.96
86194;BMP180;76841;51.366;7.480;2024-03-02T11:47:01;98171.97;;;20.12
86194;BMP180;76841;51.366;7.480;2024-03-02T11:49:48;98180.53;;;20.36
86194;BMP180;76841;51.366;7.480;2024-03-02T11:52:15;98169.31;;;20.32
86194;BMP180;76841;51.366;7.480;2024-03-02T11:54:42;98170.63;;;20.42
86194;BMP180;76841;51.366;7.480;2024-03-02T11:57:18;98172.16;;;20.49
86194;BMP180;76841;51.366;7.480;2024-03-02T11:59:44;98189.94;;;20.52
86194;BMP180;76841;51.366;7.480;2024-03-02T12:02:20;98177.22;;;20.47
86194;BMP180;76841;51.366;7.480;2024-03-02T12:04:46;98179.91;;;20.47
86194;BMP180;76841;51.366;7.480;2024-03-02T12:07:18;98176.25;;;20.44
86194;BMP180;76841;51.366;7.480;2024-03-02T12:09:45;98168.34;;;20.35
86194;BMP180;76841;51.366;7.480;2024-03-02T12:12:10;98163.88;;;20.27
86194;BMP180;76841;51.366;7.480;2024-03-02T12:14:37;98163.50;;;19.99
86194;BMP180;76841;51.366;7.480;2024-03-02T12:17:04;98156.75;;;19.98
86194;BMP180;76841;51.366;7.480;2024-03-02T12:19:30;98156.47;;;19.96
86194;BMP180;76841;51.366;7.480;2024-03-02T12:21:59;98168.81;;;19.94
86194;BMP180;76841;51.366;7.480;2024-03-02T12:24:27;98175.53;;;19.89
86194;BMP180;76841;51.366;7.480;2024-03-02T12:26:52;98157.88;;;19.77
86194;BMP180;76841;51.366;7.480;2024-03-02T12:29:19;98165.47;;;19.64
86194;BMP180;76841;51.366;7.480;2024-03-02T12:31:44;98152.88;;;19.50
86194;BMP180;76841;51.366;7.480;2024-03-02T12:34:17;98173.72;;;19.66
86194;BMP180;76841;51.366;7.480;2024-03-02T12:36:42;98175.97;;;19.53
86194;BMP180;76841;51.366;7.480;2024-03-02T12:39:08;98166.69;;;19.34
86194;BMP180;76841;51.366;7.480;2024-03-02T12:41:38;98174.69;;;19.34
86194;BMP180;76841;51.366;7.480;2024-03-02T12:44:04;98182.78;;;19.25
86194;BMP180;76841;51.366;7.480;2024-03-02T12:46:30;98163.09;;;19.08
86194;BMP180;76841;51.366;7.480;2024-03-02T12:48:55;98164.28;;;19.07
86194;BMP180;76841;51.366;7.480;2024-03-02T12:51:21;98160.16;;;19.06
86194;BMP180;76841;51.366;7.480;2024-03-02T12:53:53;98153.69;;;18.98
86194;BMP180;76841;51.366;7.480;2024-03-02T12:56:18;98158.94;;;18.92
86194;BMP180;76841;51.366;7.480;2024-03-02T12:58:44;98149.47;;;18.77
86194;BMP180;76841;51.366;7.480;2024-03-02T13:01:09;98144.28;;;18.59
86194;BMP180;76841;51.366;7.480;2024-03-02T13:03:38;98135.69;;;18.40
86194;BMP180;76841;51.366;7.480;2024-03-02T13:06:05;98140.78;;;18.29
86194;BMP180;76841;51.366;7.480;2024-03-02T13:08:31;98143.91;;;18.19
86194;BMP180;76841;51.366;7.480;2024-03-02T13:10:57;98138.72;;;18.01
86194;BMP180;76841;51.366;7.480;2024-03-02T13:13:22;98142.59;;;17.91
86194;BMP180;76841;51.366;7.480;2024-03-02T13:15:48;98132.09;;;17.96
86194;BMP180;76841;51.366;7.480;2024-03-02T13:18:13;98118.66;;;17.91
86194;BMP180;76841;51.366;7.480;2024-03-02T13:20:38;98127.78;;;17.99
86194;BMP180;76841;51.366;7.480;2024-03-02T13:23:05;98121.03;;;17.89
86194;BMP180;76841;51.366;7.480;2024-03-02T13:25:30;98121.69;;;17.75
86194;BMP180;76841;51.366;7.480;2024-03-02T13:27:56;98134.25;;;17.74
86194;BMP180;76841;51.366;7.480;2024-03-02T13:30:22;98123.66;;;17.65
86194;BMP180;76841;51.366;7.480;2024-03-02T13:32:47;98128.56;;;17.58
86194;BMP180;76841;51.366;7.480;2024-03-02T13:35:12;98141.69;;;17.52
86194;BMP180;76841;51.366;7.480;2024-03-02T13:37:38;98129.97;;;17.35
86194;BMP180;76841;51.366;7.480;2024-03-02T13:40:03;98138.66;;;17.35
86194;BMP180;76841;51.366;7.480;2024-03-02T13:42:30;98130.69;;;17.26
86194;BMP180;76841;51.366;7.480;2024-03-02T13:44:55;98123.31;;;17.30
86194;BMP180;76841;51.366;7.480;2024-03-02T13:47:20;98131.31;;;17.30
86194;BMP180;76841;51.366;7.480;2024-03-02T13:49:46;98121.25;;;17.25
86194;BMP180;76841;51.366;7.480;2024-03-02T13:52:11;98115.69;;;17.05
86194;BMP180;76841;51.366;7.480;2024-03-02T13:54:42;98126.00;;;17.03
86194;BMP180;76841;51.366;7.480;2024-03-02T13:57:09;98117.47;;;16.81
86194;BMP180;76841;51.366;7.480;2024-03-02T13:59:35;98110.81;;;16.77
86194;BMP180;76841;51.366;7.480;2024-03-02T14:02:04;98121.28;;;16.62
86194;BMP180;76841;51.366;7.480;2024-03-02T14:04:33;98111.56;;;16.59
86194;BMP180;76841;51.366;7.480;2024-03-02T14:06:59;98108.31;;;16.55
86194;BMP180;76841;51.366;7.480;2024-03-02T14:09:25;98092.56;;;16.61
86194;BMP180;76841;51.366;7.480;2024-03-02T14:11:50;98104.50;;;16.65
86194;BMP180;76841;51.366;7.480;2024-03-02T14:14:16;98098.28;;;16.68
86194;BMP180;76841;51.366;7.480;2024-03-02T14:16:42;98094.00;;;16.71